Flight Track Log - Related Links

Times and Time Zones

All times are in EDT time to prevent confusion due to time zone crossing. See the N725CD flight status page for this flight to view local times or setup timezone preferences in your user account.

Time Position Orientation Groundspeed Altitude Reporting Facility
EDT Latitude Longitude Course Direction KTS MPH feet Rate Location/Type
Thu 03:39:42 PM 36.0036 -94.2281 348° North 124 143 3,700  Level Kansas City Center
Thu 03:40:44 PM 36.0472 -94.2342 354° North 137 158 4,400 726 Climbing Kansas City Center
Thu 03:41:46 PM 36.0914 -94.2414 352° North 149 171 5,200 726 Climbing Kansas City Center
Thu 03:42:48 PM 36.1428 -94.2542 349° North 154 177 5,900 339 Climbing Kansas City Center
Thu 03:43:00 PM 36.2781 -94.2254 348° North  Level FlightAware Approximate
Thu 03:43:50 PM 36.1858 -94.2639 350° North 156 180 5,900  Level Kansas City Center
Thu 03:44:00 PM 36.3242 -94.2378 348° North  Level FlightAware Approximate
Thu 03:44:52 PM 36.2317 -94.2783 346° North 161 185 5,900  Level Kansas City Center
Thu 03:45:54 PM 36.2789 -94.2892 350° North 166 191 6,000 48 Climbing Kansas City Center
Thu 03:46:56 PM 36.3267 -94.3003 349° North 170 196 6,000  Level Kansas City Center
Thu 03:47:58 PM 36.3761 -94.3114 350° North 174 200 6,000  Level Kansas City Center
Thu 03:49:00 PM 36.4356 -94.3247 350° North 178 205 6,000  Level Kansas City Center
Thu 03:50:03 PM 36.4839 -94.3364 349° North 178 205 6,000  Level Kansas City Center
Thu 03:51:05 PM 36.5328 -94.3467 350° North 178 205 6,000  Level Kansas City Center
Thu 03:52:07 PM 36.5819 -94.3583 349° North 178 205 6,000  Level Kansas City Center
Thu 03:53:09 PM 36.6311 -94.3711 348° North 179 206 6,000  Level Kansas City Center
Thu 03:54:11 PM 36.6794 -94.3808 351° North 178 205 6,000  Level Kansas City Center
Thu 03:55:13 PM 36.7367 -94.3947 349° North 176 203 6,000  Level Kansas City Center
Thu 03:56:15 PM 36.7864 -94.4053 350° North 177 204 6,000  Level Kansas City Center
Thu 03:57:17 PM 36.8347 -94.4172 349° North 178 205 6,000  Level Kansas City Center
Thu 03:58:19 PM 36.8833 -94.4286 349° North 178 205 6,000  Level Kansas City Center
Thu 03:59:21 PM 36.9319 -94.4392 350° North 178 205 6,000  Level Kansas City Center
Thu 04:00:23 PM 36.9797 -94.4511 349° North 176 203 6,000  Level Kansas City Center
Thu 04:01:25 PM 37.0275 -94.4622 349° North 175 201 6,000  Level Kansas City Center
Thu 04:02:27 PM 37.0858 -94.4750 350° North 176 203 6,000  Level Kansas City Center
Thu 04:03:29 PM 37.1342 -94.4869 349° North 176 203 6,000  Level Kansas City Center
Thu 04:04:31 PM 37.1822 -94.4994 348° North 177 204 6,000  Level Kansas City Center
Thu 04:05:33 PM 37.2308 -94.5103 350° North 177 204 6,000  Level Kansas City Center
Thu 04:06:35 PM 37.2803 -94.5206 351° North 178 205 6,000  Level Kansas City Center
Thu 04:07:37 PM 37.3278 -94.5311 350° North 176 203 6,000  Level Kansas City Center
Thu 04:08:39 PM 37.3850 -94.5467 348° North 175 201 6,000  Level Kansas City Center
Thu 04:09:41 PM 37.4328 -94.5581 349° North 175 201 6,000  Level Kansas City Center
Thu 04:10:43 PM 37.4806 -94.5681 351° North 174 200 6,000  Level Kansas City Center
Thu 04:11:46 PM 37.5283 -94.5806 348° North 174 200 6,000  Level Kansas City Center
Thu 04:12:48 PM 37.5761 -94.5914 350° North 174 200 6,000  Level Kansas City Center
Thu 04:13:50 PM 37.6239 -94.6033 349° North 174 200 6,000  Level Kansas City Center
Thu 04:14:52 PM 37.6803 -94.6169 349° North 173 199 6,000  Level Kansas City Center
Thu 04:15:54 PM 37.7264 -94.6264 351° North 171 197 6,000  Level Kansas City Center
Thu 04:16:56 PM 37.7714 -94.6394 347° North 173 199 6,000  Level Kansas City Center
Thu 04:17:58 PM 37.8244 -94.6506 351° North 172 198 6,000  Level Kansas City Center
Thu 04:19:00 PM 37.8700 -94.6606 350° North 173 199 6,000  Level Kansas City Center
Thu 04:20:02 PM 37.9225 -94.6750 348° North 174 200 6,000  Level Kansas City Center
Thu 04:21:04 PM 37.9678 -94.6839 351° North 173 199 6,000  Level Kansas City Center
Thu 04:22:06 PM 38.0206 -94.6953 350° North 172 198 6,000  Level Kansas City Center
Thu 04:23:08 PM 38.0642 -94.7064 349° North 170 196 6,000  Level Kansas City Center
Thu 04:24:10 PM 38.1161 -94.7189 349° North 169 194 6,000  Level Kansas City Center
Thu 04:25:12 PM 38.1608 -94.7306 348° North 170 196 6,000  Level Kansas City Center
Thu 04:26:14 PM 38.2117 -94.7417 350° North 168 193 6,000  Level Kansas City Center
Thu 04:27:16 PM 38.2553 -94.7525 349° North 167 192 6,000  Level Kansas City Center
Thu 04:28:18 PM 38.3000 -94.7619 351° North 168 193 6,000 -435 Level Kansas City Center
Thu 04:29:20 PM 38.3550 -94.7756 349° North 182 209 5,100 -823 Descending Kansas City Center
Thu 04:30:22 PM 38.4044 -94.7858 351° North 187 215 4,300 -532 Descending Kansas City Center
Thu 04:31:24 PM 38.4522 -94.7978 349° North 156 180 4,000 -145 Descending Kansas City Center
Thu 04:32:26 PM 38.4947 -94.8094 348° North 165 190 4,000 -194 Level Kansas City Center
Thu 04:33:28 PM 38.5475 -94.8225 349° North 172 198 3,600 -432 Descending Kansas City Center
Thu 04:34:31 PM 38.5942 -94.8328 350° North 179 206 3,100 -288 Descending Kansas City Center
Thu 04:35:33 PM 38.6456 -94.8461 349° North 166 191 3,000 -48 Descending Kansas City Center
Thu 04:36:35 PM 38.6842 -94.8556 349° North 150 173 3,000 -48 Level Kansas City Center
Thu 04:37:37 PM 38.7275 -94.8733 342° North 146 168 2,900 -290 Descending Kansas City Center
Thu 04:38:39 PM 38.7583 -94.8911 336° Northwest 135 155 2,400 -581 Descending Kansas City Center
Thu 04:39:41 PM 38.7917 -94.8914 360° North 108 124 1,700 -581 Descending Kansas City Center
Thu 04:40:43 PM 38.8167 -94.8922 359° North 99 114 1,200 -484 Descending Kansas City Center

Login

Don't have an account? Register now (free) for customized features, flight alerts, and more!